Time;durP1;ratioP1;P1;durP2;ratioP2;P2;SDS_P1;SDS_P2;PMS_P1;PMS_P2;Temp;Humidity;BMP_temperature;BMP_pressure;BME280_temperature;BME280_humidity;BME280_pressure;Samples;Min_cycle;Max_cycle;Signal;HPM_P1;HPM_P2
2022/04/01 11:58:21;;;;;;;;;;;;;;;29.02;35.91;97561.42;84830;1309;15002402;-75
2022/04/01 12:00:49;;;;;;;;;;;;;;;28.10;36.22;97562.16;105994;1285;307575;-76
2022/04/01 12:03:18;;;;;;;;;;;;;;;27.29;36.78;97560.31;106839;1284;16472;-76
2022/04/01 12:05:46;;;;;;;;;;;;;;;26.61;37.06;97568.68;106869;1285;16537;-76
2022/04/01 12:12:21;;;;;;;;;;;;;;;24.97;33.83;97575.55;104730;1304;35350;-75
2022/04/01 12:14:48;;;;;;;;;;;;;;;21.64;31.83;97575.41;106925;1284;16507;-72
2022/04/01 12:17:15;;;;;;;;;;;;;;;18.39;31.88;97585.94;106972;1284;17438;-74
2022/04/01 12:19:41;;;;;;;;;;;;;;;15.64;32.40;97589.27;106715;1286;16450;-75
2022/04/01 12:22:09;;;;;;;;;;;;;;;13.54;33.02;97601.27;107073;1284;16454;-73
2022/04/01 12:24:37;;;;;;;;;;;;;;;11.87;33.44;97603.17;107119;1283;18835;-73
2022/04/01 12:27:06;;;;;;;;;;;;;;;10.48;33.91;97607.15;107143;1283;153774;-73
2022/04/01 12:29:33;;;;;;;;;;;;;;;9.30;34.01;97612.30;107077;1283;18624;-73
2022/04/01 12:32:02;;;;;;;;;;;;;;;8.32;34.44;97618.84;107055;1284;16612;-72
2022/04/01 12:34:29;;;;;;;;;;;;;;;7.57;34.79;97618.46;107047;1283;20053;-73
2022/04/01 12:37:01;;;;;;;;;;;;;;;6.92;34.87;97625.50;107465;1283;16474;-73
2022/04/01 12:39:29;;;;;;;;;;;;;;;6.33;35.21;97626.43;88947;1283;15007050;-73
2022/04/01 12:42:00;;;;;;;;;;;;;;;5.88;35.46;97626.19;107158;1283;16471;-73
2022/04/01 12:44:30;;;;;;;;;;;;;;;5.60;35.80;97627.05;107199;1283;15994;-74
2022/04/01 12:46:59;;;;;;;;;;;;;;;5.33;35.92;97628.48;107348;1283;16530;-73
2022/04/01 12:49:27;;;;;;;;;;;;;;;5.12;36.02;97625.42;107040;1283;16466;-73
2022/04/01 12:51:59;;;;;;;;;;;;;;;4.94;36.15;97623.58;106924;1284;16464;-73
2022/04/01 12:54:34;;;;;;;;;;;;;;;4.81;36.19;97621.36;106923;1283;15683;-73
2022/04/01 12:57:02;;;;;;;;;;;;;;;4.66;36.41;97622.59;106953;1283;16529;-74
2022/04/01 12:59:33;;;;;;;;;;;;;;;4.54;36.63;97623.65;106940;1283;16471;-73
2022/04/01 13:02:01;;;;;;;;;;;;;;;4.43;36.76;97618.41;106977;1283;16527;-73
2022/04/01 13:04:28;;;;;;;;;;;;;;;4.35;36.75;97622.14;88499;1283;15003534;-73
2022/04/01 13:07:15;;;;;;;;;;;;;;;4.22;36.93;97615.48;106700;1285;24765;-73
2022/04/01 13:09:46;;;;;;;;;;;;;;;4.09;37.04;97613.20;106774;1284;16547;-73
2022/04/01 13:12:13;;;;;;;;;;;;;;;4.02;37.20;97612.61;108545;1285;16463;-73
2022/04/01 13:14:40;;;;;;;;;;;;;;;4.00;37.15;97615.09;106846;1285;16579;-73
2022/04/01 13:17:14;;;;;;;;;;;;;;;3.97;37.35;97618.42;106830;1284;16459;-73
2022/04/01 13:19:41;;;;;;;;;;;;;;;3.92;37.40;97619.35;106793;1284;16468;-73
2022/04/01 13:22:08;;;;;;;;;;;;;;;3.87;37.47;97617.87;106740;1285;15382;-73
2022/04/01 13:24:48;;;;;;;;;;;;;;;3.84;37.59;97615.98;106791;1285;17294;-72
2022/04/01 13:27:17;;;;;;;;;;;;;;;3.77;37.84;97616.61;106748;1285;16481;-73
2022/04/01 13:29:44;;;;;;;;;;;;;;;3.76;38.00;97614.43;106800;1285;17357;-70
2022/04/01 13:32:11;;;;;;;;;;;;;;;3.75;37.89;97614.28;106760;1285;16515;-72
2022/04/01 13:34:38;;;;;;;;;;;;;;;3.75;37.99;97613.06;106543;1285;16530;-72
2022/04/01 13:37:06;;;;;;;;;;;;;;;3.76;38.16;97610.52;106832;1285;16466;-72
2022/04/01 13:39:34;;;;;;;;;;;;;;;3.79;38.11;97611.20;106767;1285;16455;-71
2022/04/01 13:42:02;;;;;;;;;;;;;;;3.80;38.16;97616.96;107024;1285;15454;-71
2022/04/01 13:44:29;;;;;;;;;;;;;;;3.77;38.14;97617.14;106727;1284;17833;-72
2022/04/01 13:46:56;;;;;;;;;;;;;;;3.74;38.25;97616.85;106859;1284;16527;-72
2022/04/01 13:49:23;;;;;;;;;;;;;;;3.70;38.26;97618.70;106776;1285;16642;-72
2022/04/01 13:51:50;;;;;;;;;;;;;;;3.65;38.29;97620.77;106834;1284;16492;-72
2022/04/01 13:54:17;;;;;;;;;;;;;;;3.59;38.27;97621.90;106869;1285;17338;-75
2022/04/01 13:56:45;;;;;;;;;;;;;;;3.61;38.32;97619.11;106734;1282;16449;-73
2022/04/01 13:59:12;;;;;;;;;;;;;;;3.60;38.57;97619.34;106824;1284;16478;-73
2022/04/01 14:01:39;;;;;;;;;;;;;;;3.57;38.74;97617.44;106812;1285;16474;-73
2022/04/01 14:04:07;;;;;;;;;;;;;;;3.42;38.70;97620.89;106712;1285;16475;-74
2022/04/01 14:06:34;;;;;;;;;;;;;;;3.29;38.82;97618.77;106768;1284;17049;-74
2022/04/01 14:09:05;;;;;;;;;;;;;;;3.19;39.09;97620.30;106869;1284;16526;-74
2022/04/01 14:11:35;;;;;;;;;;;;;;;3.20;39.28;97618.16;106855;1285;16472;-73
2022/04/01 14:14:05;;;;;;;;;;;;;;;3.20;39.35;97619.54;106633;1287;17645;-74
2022/04/01 14:16:36;;;;;;;;;;;;;;;3.22;39.47;97618.73;106509;1287;16530;-73
2022/04/01 14:19:06;;;;;;;;;;;;;;;3.26;39.48;97624.80;106837;1286;16597;-73
2022/04/01 14:21:33;;;;;;;;;;;;;;;3.31;39.52;97627.41;106682;1287;16497;-73
2022/04/01 14:24:00;;;;;;;;;;;;;;;3.35;39.63;97626.98;106690;1287;16454;-72
2022/04/01 14:26:28;;;;;;;;;;;;;;;3.37;39.62;97627.41;106626;1286;16441;-73
2022/04/01 14:28:55;;;;;;;;;;;;;;;3.35;39.69;97623.45;106594;1286;17335;-73
2022/04/01 14:31:22;;;;;;;;;;;;;;;3.37;39.68;97622.66;106492;1287;16533;-72
2022/04/01 14:33:48;;;;;;;;;;;;;;;3.41;39.73;97626.26;106737;1286;17781;-74
2022/04/01 14:36:15;;;;;;;;;;;;;;;3.46;39.72;97624.86;106665;1287;16541;-73
2022/04/01 14:38:42;;;;;;;;;;;;;;;3.52;39.76;97627.81;106666;1287;16508;-73
2022/04/01 14:41:12;;;;;;;;;;;;;;;3.57;39.82;97623.95;106901;1284;16492;-73
2022/04/01 14:43:38;;;;;;;;;;;;;;;3.61;39.84;97628.66;106936;1285;16411;-73
2022/04/01 14:46:06;;;;;;;;;;;;;;;3.60;39.74;97630.83;106913;1286;15462;-73
2022/04/01 14:48:33;;;;;;;;;;;;;;;3.58;39.78;97635.17;109918;1286;16213;-74
2022/04/01 14:51:02;;;;;;;;;;;;;;;3.55;39.86;97642.38;108880;1286;16517;-73
2022/04/01 14:53:29;;;;;;;;;;;;;;;3.56;39.99;97641.61;106808;1287;16612;-74
2022/04/01 14:55:56;;;;;;;;;;;;;;;3.59;40.08;97636.83;106721;1287;16471;-74
2022/04/01 14:58:23;;;;;;;;;;;;;;;3.64;40.27;97639.14;106719;1287;16461;-73
2022/04/01 15:00:49;;;;;;;;;;;;;;;3.70;40.34;97637.19;106642;1285;16475;-74
2022/04/01 15:03:17;;;;;;;;;;;;;;;3.74;40.34;97634.45;106685;1286;17988;-74
2022/04/01 15:05:44;;;;;;;;;;;;;;;3.77;40.32;97636.89;106676;1286;17934;-75
2022/04/01 15:08:11;;;;;;;;;;;;;;;3.81;40.35;97637.31;106467;1286;16520;-72
2022/04/01 15:10:37;;;;;;;;;;;;;;;3.83;40.52;97640.54;106454;1288;16486;-73
2022/04/01 15:13:04;;;;;;;;;;;;;;;3.85;40.48;97644.10;106388;1287;16449;-72
2022/04/01 15:15:32;;;;;;;;;;;;;;;3.86;40.55;97646.66;106551;1287;17293;-74
2022/04/01 15:17:58;;;;;;;;;;;;;;;3.85;40.61;97644.23;106717;1286;16909;-71
2022/04/01 15:20:25;;;;;;;;;;;;;;;3.86;40.58;97645.81;106493;1288;17333;-70
2022/04/01 15:22:52;;;;;;;;;;;;;;;3.87;40.67;97644.14;106548;1288;16470;-72
2022/04/01 15:25:19;;;;;;;;;;;;;;;3.88;40.72;97644.06;106593;1287;17307;-73
2022/04/01 15:27:46;;;;;;;;;;;;;;;3.89;40.50;97641.19;106638;1287;16473;-74
2022/04/01 15:30:13;;;;;;;;;;;;;;;3.89;40.52;97643.11;106744;1286;16456;-74
2022/04/01 15:32:40;;;;;;;;;;;;;;;3.89;40.55;97647.90;106527;1287;17605;-72
2022/04/01 15:35:07;;;;;;;;;;;;;;;3.89;40.47;97648.07;106681;1286;17959;-73
2022/04/01 15:37:36;;;;;;;;;;;;;;;3.88;40.24;97648.26;106543;1286;16817;-73
2022/04/01 15:40:06;;;;;;;;;;;;;;;3.87;40.17;97650.31;106491;1287;17420;-73
2022/04/01 15:42:33;;;;;;;;;;;;;;;3.85;40.31;97652.73;106730;1285;17430;-73
2022/04/01 15:45:01;;;;;;;;;;;;;;;3.84;40.10;97653.51;106714;1284;16487;-74
2022/04/01 15:47:30;;;;;;;;;;;;;;;3.83;39.77;97654.13;106768;1283;17806;-73
2022/04/01 15:49:57;;;;;;;;;;;;;;;3.82;39.62;97658.04;106593;1284;16529;-73
2022/04/01 15:52:24;;;;;;;;;;;;;;;3.81;39.60;97656.48;106715;1283;17294;-72
2022/04/01 15:54:50;;;;;;;;;;;;;;;3.81;39.61;97659.13;106624;1284;17297;-73
2022/04/01 15:57:17;;;;;;;;;;;;;;;3.79;39.59;97661.90;106722;1284;16470;-73
2022/04/01 15:59:46;;;;;;;;;;;;;;;3.77;39.52;97661.49;106830;1283;15457;-73
2022/04/01 16:02:24;;;;;;;;;;;;;;;3.75;39.33;97665.70;106881;1283;17640;-73
2022/04/01 16:04:56;;;;;;;;;;;;;;;3.73;39.26;97668.30;106779;1285;16472;-73
2022/04/01 16:07:26;;;;;;;;;;;;;;;3.72;39.36;97666.78;106815;1283;15619;-72
2022/04/01 16:09:52;;;;;;;;;;;;;;;3.71;39.27;97675.67;106710;1285;17922;-73
2022/04/01 16:12:20;;;;;;;;;;;;;;;3.69;39.22;97675.42;106907;1281;16534;-72
2022/04/01 16:14:52;;;;;;;;;;;;;;;3.68;39.16;97679.16;106930;1281;17297;-72
2022/04/01 16:17:19;;;;;;;;;;;;;;;3.65;39.17;97683.25;106874;1280;17851;-71
2022/04/01 16:19:48;;;;;;;;;;;;;;;3.64;39.29;97688.46;106877;1280;16462;-72
2022/04/01 16:22:15;;;;;;;;;;;;;;;3.62;39.48;97690.64;106980;1281;17913;-73
2022/04/01 16:24:41;;;;;;;;;;;;;;;3.63;39.28;97691.52;106942;1281;16471;-73
2022/04/01 16:27:08;;;;;;;;;;;;;;;3.62;39.39;97695.39;106835;1281;15460;-74
2022/04/01 16:29:34;;;;;;;;;;;;;;;3.61;39.45;97693.23;106874;1281;16469;-72
2022/04/01 16:32:02;;;;;;;;;;;;;;;3.61;39.43;97697.11;106911;1281;17851;-73
2022/04/01 16:34:29;;;;;;;;;;;;;;;3.60;39.45;97700.49;106874;1281;16912;-74
2022/04/01 16:36:57;;;;;;;;;;;;;;;3.60;39.62;97704.52;106865;1281;16528;-74
2022/04/01 16:39:25;;;;;;;;;;;;;;;3.60;39.67;97702.23;106889;1281;17307;-74
2022/04/01 16:41:51;;;;;;;;;;;;;;;3.62;39.71;97708.46;106906;1281;15409;-75
2022/04/01 16:44:18;;;;;;;;;;;;;;;3.62;39.90;97707.89;106800;1281;16523;-73
2022/04/01 16:46:45;;;;;;;;;;;;;;;3.63;39.73;97715.25;106876;1281;17741;-73
2022/04/01 16:49:12;;;;;;;;;;;;;;;3.64;39.69;97714.31;106934;1281;16449;-72
2022/04/01 16:51:38;;;;;;;;;;;;;;;3.63;39.63;97715.61;106836;1281;16521;-72
2022/04/01 16:54:07;;;;;;;;;;;;;;;3.60;39.86;97717.19;106971;1281;16536;-73
2022/04/01 16:56:34;;;;;;;;;;;;;;;3.58;39.81;97716.11;106914;1280;18097;-74
2022/04/01 16:59:01;;;;;;;;;;;;;;;3.58;39.90;97718.96;106854;1281;16464;-72
2022/04/01 17:01:27;;;;;;;;;;;;;;;3.56;39.99;97719.92;106926;1279;16450;-73
2022/04/01 17:03:54;;;;;;;;;;;;;;;3.54;40.00;97719.52;106890;1281;16466;-74
2022/04/01 17:14:37;;;;;;;;;;;;;;;3.41;39.92;97717.36;106676;1283;17884;-73
2022/04/01 17:17:04;;;;;;;;;;;;;;;3.39;40.01;97724.94;106797;1283;16139;-73
2022/04/01 17:19:31;;;;;;;;;;;;;;;3.37;40.11;97725.02;106843;1283;17118;-73
2022/04/01 17:21:58;;;;;;;;;;;;;;;3.36;40.02;97727.76;106861;1283;16448;-71
2022/04/01 17:24:26;;;;;;;;;;;;;;;3.34;40.13;97729.09;106733;1283;17130;-73
2022/04/01 17:26:52;;;;;;;;;;;;;;;3.33;40.09;97731.61;106814;1284;16713;-73
2022/04/01 17:29:19;;;;;;;;;;;;;;;3.32;40.09;97728.36;106872;1283;17081;-73
2022/04/01 17:31:48;;;;;;;;;;;;;;;3.31;40.24;97730.17;106788;1283;16478;-72
2022/04/01 17:34:14;;;;;;;;;;;;;;;3.30;40.35;97730.23;107125;1280;17871;-72
2022/04/01 17:36:42;;;;;;;;;;;;;;;3.30;40.55;97733.78;106930;1279;16852;-74
2022/04/01 17:39:13;;;;;;;;;;;;;;;3.28;40.55;97734.75;106957;1280;16485;-74
2022/04/01 17:41:44;;;;;;;;;;;;;;;3.25;40.43;97737.21;106968;1280;16552;-74
2022/04/01 17:44:13;;;;;;;;;;;;;;;3.25;40.56;97742.89;106925;1280;16527;-74
2022/04/01 17:46:40;;;;;;;;;;;;;;;3.24;40.63;97741.68;106969;1279;16474;-72
2022/04/01 17:49:12;;;;;;;;;;;;;;;3.24;40.54;97742.02;106918;1279;16478;-74
2022/04/01 17:51:39;;;;;;;;;;;;;;;3.24;40.58;97739.91;106966;1280;17693;-75
2022/04/01 17:54:06;;;;;;;;;;;;;;;3.24;40.58;97742.73;106945;1280;15486;-72
2022/04/01 17:56:35;;;;;;;;;;;;;;;3.24;40.60;97749.94;106986;1280;16451;-73
2022/04/01 17:59:04;;;;;;;;;;;;;;;3.23;40.62;97752.09;107106;1279;18217;-73
2022/04/01 18:01:31;;;;;;;;;;;;;;;3.23;40.64;97758.25;107034;1280;16664;-70
2022/04/01 18:04:01;;;;;;;;;;;;;;;3.23;40.54;97759.84;107018;1280;16550;-71
2022/04/01 18:06:29;;;;;;;;;;;;;;;3.23;40.67;97763.00;106953;1279;16483;-71
2022/04/01 18:08:57;;;;;;;;;;;;;;;3.23;40.68;97765.13;106982;1279;16528;-70
2022/04/01 18:11:24;;;;;;;;;;;;;;;3.23;40.75;97763.92;107034;1279;17855;-71
2022/04/01 18:13:51;;;;;;;;;;;;;;;3.23;40.64;97770.05;107121;1278;16889;-70
2022/04/01 18:16:17;;;;;;;;;;;;;;;3.23;40.75;97772.14;106962;1280;15568;-72
2022/04/01 18:18:46;;;;;;;;;;;;;;;3.23;40.75;97774.27;107071;1280;17277;-72
2022/04/01 18:21:13;;;;;;;;;;;;;;;3.22;40.95;97776.44;107070;1280;16629;-71
2022/04/01 18:23:42;;;;;;;;;;;;;;;3.22;40.79;97780.00;107036;1279;18026;-72
2022/04/01 18:26:20;;;;;;;;;;;;;;;3.21;40.91;97785.33;106914;1280;17803;-73
2022/04/01 18:28:53;;;;;;;;;;;;;;;3.21;40.84;97790.63;106994;1280;16460;-73
2022/04/01 18:31:21;;;;;;;;;;;;;;;3.21;40.80;97791.48;107056;1280;16520;-72
2022/04/01 18:33:54;;;;;;;;;;;;;;;3.21;40.95;97793.60;107178;1279;16172;-72
2022/04/01 18:36:21;;;;;;;;;;;;;;;3.21;40.97;97792.56;107095;1279;16475;-72
2022/04/01 18:38:49;;;;;;;;;;;;;;;3.20;40.92;97793.66;107143;1280;17297;-73
2022/04/01 18:41:18;;;;;;;;;;;;;;;3.20;40.89;97794.18;107063;1279;16458;-73
2022/04/01 18:43:45;;;;;;;;;;;;;;;3.20;40.93;97799.78;107077;1279;16691;-72
2022/04/01 18:46:12;;;;;;;;;;;;;;;3.20;41.03;97802.61;107080;1280;16630;-72
2022/04/01 18:48:40;;;;;;;;;;;;;;;3.21;41.01;97803.46;106990;1280;16532;-72
2022/04/01 18:51:06;;;;;;;;;;;;;;;3.21;41.08;97804.32;107101;1280;17293;-72
2022/04/01 18:53:34;;;;;;;;;;;;;;;3.21;41.10;97807.13;107095;1279;15453;-71
2022/04/01 18:56:02;;;;;;;;;;;;;;;3.22;40.99;97805.15;107027;1279;16824;-72
2022/04/01 18:58:30;;;;;;;;;;;;;;;3.23;41.24;97807.90;107201;1279;16454;-71
2022/04/01 19:00:58;;;;;;;;;;;;;;;3.23;41.27;97808.92;106883;1279;16513;-72
2022/04/01 19:03:25;;;;;;;;;;;;;;;3.23;41.36;97811.19;107088;1279;16506;-72
2022/04/01 19:06:01;;;;;;;;;;;;;;;3.23;41.34;97809.98;107116;1280;16470;-72
2022/04/01 19:08:37;;;;;;;;;;;;;;;3.24;41.44;97810.48;107146;1279;16493;-72
2022/04/01 19:11:11;;;;;;;;;;;;;;;3.23;41.38;97813.99;107127;1280;16465;-72
2022/04/01 19:13:39;;;;;;;;;;;;;;;3.23;41.51;97817.35;106951;1280;17287;-74
2022/04/01 19:16:10;;;;;;;;;;;;;;;3.22;41.42;97819.55;107103;1280;16951;-72
2022/04/01 19:18:39;;;;;;;;;;;;;;;3.21;41.41;97823.64;106915;1280;17304;-72
2022/04/01 19:21:07;;;;;;;;;;;;;;;3.21;41.49;97827.56;106896;1279;16464;-72
2022/04/01 19:23:34;;;;;;;;;;;;;;;3.19;41.37;97827.49;106974;1280;18632;-73
2022/04/01 19:26:01;;;;;;;;;;;;;;;3.19;41.52;97831.39;106918;1279;16445;-73
2022/04/01 19:28:27;;;;;;;;;;;;;;;3.17;41.51;97832.18;106938;1279;17908;-72
2022/04/01 19:30:55;;;;;;;;;;;;;;;3.15;41.62;97831.08;107013;1279;17920;-74
2022/04/01 19:33:22;;;;;;;;;;;;;;;3.14;41.65;97835.02;106901;1280;17826;-73
2022/04/01 19:35:49;;;;;;;;;;;;;;;3.14;41.55;97838.73;107091;1280;16492;-72
2022/04/01 19:38:16;;;;;;;;;;;;;;;3.12;41.67;97839.34;106950;1280;16446;-75
2022/04/01 19:40:42;;;;;;;;;;;;;;;3.11;41.57;97843.47;107035;1280;17277;-73
2022/04/01 19:43:09;;;;;;;;;;;;;;;3.10;41.57;97844.23;107016;1280;16515;-73
2022/04/01 19:45:37;;;;;;;;;;;;;;;3.10;41.57;97845.47;106921;1280;16467;-72
2022/04/01 19:48:03;;;;;;;;;;;;;;;3.09;41.59;97846.04;107023;1280;16443;-75
2022/04/01 19:50:31;;;;;;;;;;;;;;;3.08;41.52;97850.32;106974;1281;16460;-72
2022/04/01 19:52:58;;;;;;;;;;;;;;;3.09;41.58;97855.05;106953;1279;16451;-74
2022/04/01 19:55:26;;;;;;;;;;;;;;;3.08;41.54;97853.48;106934;1280;17947;-73
2022/04/01 19:57:53;;;;;;;;;;;;;;;3.07;41.58;97855.46;107070;1279;19132;-73
2022/04/01 20:00:20;;;;;;;;;;;;;;;3.10;41.98;97856.05;107052;1280;16593;-72
2022/04/01 20:02:47;;;;;;;;;;;;;;;3.14;42.15;97859.95;106943;1279;16511;-72
2022/04/01 20:05:14;;;;;;;;;;;;;;;3.18;42.01;97859.19;107076;1280;18693;-72
2022/04/01 20:07:41;;;;;;;;;;;;;;;3.21;41.99;97860.96;106905;1280;17917;-72
2022/04/01 20:10:08;;;;;;;;;;;;;;;3.23;41.95;97862.04;107161;1277;16517;-73
2022/04/01 20:12:35;;;;;;;;;;;;;;;3.24;41.65;97859.02;107228;1277;15455;-73
2022/04/01 20:15:03;;;;;;;;;;;;;;;3.22;41.61;97858.93;107207;1277;16492;-72
2022/04/01 20:17:29;;;;;;;;;;;;;;;3.20;41.58;97862.38;107228;1277;16464;-72
2022/04/01 20:19:56;;;;;;;;;;;;;;;3.17;41.56;97859.10;107207;1277;16509;-73
2022/04/01 20:22:23;;;;;;;;;;;;;;;3.15;41.59;97861.11;107201;1277;17892;-72
2022/04/01 20:24:51;;;;;;;;;;;;;;;3.13;41.54;97859.48;107226;1277;17820;-72
2022/04/01 20:27:17;;;;;;;;;;;;;;;3.11;41.59;97854.72;107069;1277;17357;-73
2022/04/01 20:29:44;;;;;;;;;;;;;;;3.08;41.61;97856.45;107255;1277;16447;-73
2022/04/01 20:32:12;;;;;;;;;;;;;;;3.07;41.52;97856.23;107247;1277;16442;-73
2022/04/01 20:34:38;;;;;;;;;;;;;;;3.05;41.57;97858.80;107236;1277;16457;-73
2022/04/01 20:37:05;;;;;;;;;;;;;;;3.02;41.51;97859.70;107104;1277;16507;-73
2022/04/01 20:39:33;;;;;;;;;;;;;;;3.00;41.56;97862.43;107218;1277;16116;-72
2022/04/01 20:41:59;;;;;;;;;;;;;;;2.98;41.54;97863.55;107155;1277;16466;-72
2022/04/01 20:44:26;;;;;;;;;;;;;;;2.97;41.73;97862.92;107124;1277;16462;-73
2022/04/01 20:46:52;;;;;;;;;;;;;;;2.96;41.82;97864.42;107206;1277;16594;-72
2022/04/01 20:49:19;;;;;;;;;;;;;;;2.95;41.89;97865.73;107077;1277;17288;-74
2022/04/01 20:51:46;;;;;;;;;;;;;;;2.93;41.86;97868.95;107206;1277;16494;-73
2022/04/01 20:54:12;;;;;;;;;;;;;;;2.91;41.77;97867.46;107232;1277;16436;-72
2022/04/01 20:56:39;;;;;;;;;;;;;;;2.92;41.78;97873.23;107218;1277;16977;-73
2022/04/01 20:59:05;;;;;;;;;;;;;;;2.92;41.78;97871.15;107093;1277;16451;-73
2022/04/01 21:01:32;;;;;;;;;;;;;;;2.91;41.88;97877.00;107222;1277;16626;-74
2022/04/01 21:03:59;;;;;;;;;;;;;;;2.90;41.76;97875.50;107201;1277;16801;-72
2022/04/01 21:06:25;;;;;;;;;;;;;;;2.88;41.89;97879.27;106958;1277;17221;-74
2022/04/01 21:08:52;;;;;;;;;;;;;;;2.89;41.88;97878.94;107184;1277;16452;-73
2022/04/01 21:11:21;;;;;;;;;;;;;;;2.87;41.83;97877.08;107213;1277;19162;-73
2022/04/01 21:13:49;;;;;;;;;;;;;;;2.87;42.09;97879.18;107119;1280;16467;-73
2022/04/01 21:16:16;;;;;;;;;;;;;;;2.87;41.94;97882.88;107128;1278;16432;-72
2022/04/01 21:18:43;;;;;;;;;;;;;;;2.87;41.91;97877.07;107191;1277;16483;-73
2022/04/01 21:21:10;;;;;;;;;;;;;;;2.87;41.90;97877.28;107186;1277;16467;-73
2022/04/01 21:23:37;;;;;;;;;;;;;;;2.86;41.82;97879.96;107074;1278;16456;-74
2022/04/01 21:28:53;;;;;;;;;;;;;;;2.84;42.00;97881.82;106861;1277;16523;-73
2022/04/01 21:31:20;;;;;;;;;;;;;;;2.84;41.79;97878.86;107039;1277;16464;-73
2022/04/01 21:33:48;;;;;;;;;;;;;;;2.83;41.89;97880.64;107256;1277;15431;-72
2022/04/01 21:36:15;;;;;;;;;;;;;;;2.83;41.98;97878.75;107224;1277;16080;-73
2022/04/01 21:38:42;;;;;;;;;;;;;;;2.82;41.84;97880.55;107203;1277;17405;-69
2022/04/01 21:41:08;;;;;;;;;;;;;;;2.81;41.87;97881.34;107204;1277;16513;-69
2022/04/01 21:43:36;;;;;;;;;;;;;;;2.81;41.92;97882.74;107061;1277;16457;-68
2022/04/01 21:46:06;;;;;;;;;;;;;;;2.80;42.08;97882.61;107162;1277;16510;-68
2022/04/01 21:48:34;;;;;;;;;;;;;;;2.79;41.96;97887.05;107208;1277;17876;-69
2022/04/01 21:51:00;;;;;;;;;;;;;;;2.77;42.11;97881.55;107119;1278;16466;-69
2022/04/01 21:53:27;;;;;;;;;;;;;;;2.77;41.98;97881.73;107267;1277;16456;-69
2022/04/01 21:55:54;;;;;;;;;;;;;;;2.76;42.03;97879.83;107245;1277;16451;-68
2022/04/01 21:58:21;;;;;;;;;;;;;;;2.77;42.15;97881.20;107214;1277;16589;-66
2022/04/01 22:00:47;;;;;;;;;;;;;;;2.77;42.00;97884.54;107262;1277;16477;-70
2022/04/01 22:03:15;;;;;;;;;;;;;;;2.77;42.08;97886.69;107242;1277;18450;-68
2022/04/01 22:05:42;;;;;;;;;;;;;;;2.75;42.02;97884.35;107225;1277;16480;-69
2022/04/01 22:08:09;;;;;;;;;;;;;;;2.74;41.92;97886.14;107172;1277;18022;-69
2022/04/01 22:10:36;;;;;;;;;;;;;;;2.73;42.08;97884.45;107131;1278;15458;-69
2022/04/01 22:13:03;;;;;;;;;;;;;;;2.71;42.02;97886.44;107025;1280;17161;-69
2022/04/01 22:15:31;;;;;;;;;;;;;;;2.71;42.18;97885.05;106910;1280;16457;-69
2022/04/01 22:17:59;;;;;;;;;;;;;;;2.70;42.04;97886.70;107113;1280;17965;-68
2022/04/01 22:20:25;;;;;;;;;;;;;;;2.69;42.17;97887.61;107063;1280;17305;-68
2022/04/01 22:22:54;;;;;;;;;;;;;;;2.70;42.17;97893.23;107067;1280;16452;-68
2022/04/01 22:25:21;;;;;;;;;;;;;;;2.70;42.20;97889.36;107104;1280;17652;-68
2022/04/01 22:27:48;;;;;;;;;;;;;;;2.70;42.09;97887.05;106941;1280;18525;-69
2022/04/01 22:30:15;;;;;;;;;;;;;;;2.69;41.98;97889.55;107058;1280;16513;-69
2022/04/01 22:32:41;;;;;;;;;;;;;;;2.69;42.13;97890.29;106989;1280;16555;-69
2022/04/01 22:35:11;;;;;;;;;;;;;;;2.68;42.20;97891.41;107014;1280;17246;-68
2022/04/01 22:37:37;;;;;;;;;;;;;;;2.67;42.04;97893.39;107087;1279;16451;-68
2022/04/01 22:40:05;;;;;;;;;;;;;;;2.64;42.30;97894.24;107145;1279;16456;-69
2022/04/01 22:42:31;;;;;;;;;;;;;;;2.62;42.27;97890.73;107095;1279;17376;-69
2022/04/01 22:44:58;;;;;;;;;;;;;;;2.60;42.14;97897.48;107040;1280;16459;-68
2022/04/01 22:47:26;;;;;;;;;;;;;;;2.57;42.32;97900.80;107087;1280;16454;-69
2022/04/01 22:49:52;;;;;;;;;;;;;;;2.55;42.42;97897.62;107061;1280;15466;-69
2022/04/01 22:52:24;;;;;;;;;;;;;;;2.53;42.43;97896.85;106977;1279;16477;-68
2022/04/01 22:54:53;;;;;;;;;;;;;;;2.50;42.61;97898.79;107153;1278;16521;-69
2022/04/01 22:57:20;;;;;;;;;;;;;;;2.47;42.45;97897.91;107171;1279;16543;-68
2022/04/01 22:59:47;;;;;;;;;;;;;;;2.44;42.57;97899.97;107062;1280;16471;-68
2022/04/01 23:02:14;;;;;;;;;;;;;;;2.42;42.59;97903.44;107052;1280;17835;-69
2022/04/01 23:04:41;;;;;;;;;;;;;;;2.40;42.59;97903.71;107090;1280;16476;-68
2022/04/01 23:07:07;;;;;;;;;;;;;;;2.38;42.65;97899.80;106999;1279;16447;-69
2022/04/01 23:09:34;;;;;;;;;;;;;;;2.37;42.79;97902.52;106987;1280;16511;-67
2022/04/01 23:12:00;;;;;;;;;;;;;;;2.36;42.79;97900.29;106970;1279;16477;-70
2022/04/01 23:14:27;;;;;;;;;;;;;;;2.35;42.85;97902.24;107241;1276;16456;-68
2022/04/01 23:16:54;;;;;;;;;;;;;;;2.33;42.94;97900.09;107003;1277;16490;-68
2022/04/01 23:19:22;;;;;;;;;;;;;;;2.31;42.82;97900.92;107134;1277;16517;-68
2022/04/01 23:21:48;;;;;;;;;;;;;;;2.28;42.82;97897.39;107196;1277;16906;-67
2022/04/01 23:24:15;;;;;;;;;;;;;;;2.27;42.73;97904.13;107042;1280;18229;-68
2022/04/01 23:26:42;;;;;;;;;;;;;;;2.26;42.89;97902.95;107058;1278;16453;-68
2022/04/01 23:29:09;;;;;;;;;;;;;;;2.27;43.03;97903.28;107269;1277;16491;-69
2022/04/01 23:31:36;;;;;;;;;;;;;;;2.26;42.97;97906.66;107179;1277;15457;-68
2022/04/01 23:34:03;;;;;;;;;;;;;;;2.24;43.04;97906.77;106971;1280;15964;-66
2022/04/01 23:36:29;;;;;;;;;;;;;;;2.22;42.91;97902.86;106960;1277;15453;-69
2022/04/01 23:38:56;;;;;;;;;;;;;;;2.21;43.02;97901.33;107054;1277;15345;-67
2022/04/01 23:41:25;;;;;;;;;;;;;;;2.19;43.21;97903.02;107199;1277;16574;-68
2022/04/01 23:43:52;;;;;;;;;;;;;;;2.18;42.98;97903.09;107069;1277;16485;-68
2022/04/01 23:46:19;;;;;;;;;;;;;;;2.16;42.97;97906.70;107213;1277;18137;-68
2022/04/01 23:48:46;;;;;;;;;;;;;;;2.13;43.19;97908.45;107220;1277;17272;-68
2022/04/01 23:51:12;;;;;;;;;;;;;;;2.10;43.02;97907.19;107225;1277;17294;-68
2022/04/01 23:53:39;;;;;;;;;;;;;;;2.08;43.21;97908.34;107195;1276;16309;-68
2022/04/01 23:56:06;;;;;;;;;;;;;;;2.08;43.18;97906.46;107253;1277;16465;-68
2022/04/01 23:58:32;;;;;;;;;;;;;;;2.06;43.39;97906.38;107111;1277;16485;-68
